Time;durP1;ratioP1;P1;durP2;ratioP2;P2;SDS_P1;SDS_P2;PMS_P1;PMS_P2;Temp;Humidity;BMP_temperature;BMP_pressure;BME280_temperature;BME280_humidity;BME280_pressure;Samples;Min_cycle;Max_cycle;Signal;HPM_P1;HPM_P2
2021/10/20 00:00:35;;;;;;;7.80;6.27;;;10.00;99.90;9.40;97533.00;;;;5065181;28;20202;-69
2021/10/20 00:03:24;;;;;;;6.20;5.60;;;9.90;99.90;9.50;97531.00;;;;5080060;28;20204;-70
2021/10/20 00:06:13;;;;;;;7.57;6.13;;;9.80;99.90;9.40;97533.00;;;;5079032;28;20215;-69
2021/10/20 00:09:02;;;;;;;6.87;6.27;;;9.80;99.90;9.50;97533.00;;;;5065849;28;20188;-69
2021/10/20 00:11:51;;;;;;;6.70;5.97;;;9.70;99.90;9.50;97532.00;;;;5064888;28;20224;-69
2021/10/20 00:14:40;;;;;;;5.83;5.23;;;9.70;99.90;9.50;97538.00;;;;5086158;28;20203;-68
2021/10/20 00:17:30;;;;;;;7.93;6.73;;;9.60;99.90;9.40;97533.00;;;;5085432;28;20191;-69
2021/10/20 00:20:22;;;;;;;8.20;5.73;;;9.60;99.90;9.40;97532.00;;;;5084936;28;20203;-69
2021/10/20 00:23:12;;;;;;;7.57;6.07;;;9.60;99.90;9.40;97526.00;;;;5084654;28;20218;-69
2021/10/20 00:26:01;;;;;;;5.40;4.90;;;9.60;99.90;9.50;97531.00;;;;5098041;28;20214;-69
2021/10/20 00:28:49;;;;;;;7.67;6.83;;;9.60;99.90;9.50;97513.00;;;;5085589;28;20211;-69
2021/10/20 00:31:38;;;;;;;7.70;5.27;;;9.60;99.90;9.40;97517.00;;;;5083665;28;20620;-69
2021/10/20 00:34:28;;;;;;;8.83;5.87;;;9.60;99.90;9.30;97515.00;;;;5064459;28;20211;-69
2021/10/20 00:37:17;;;;;;;7.97;6.00;;;9.60;99.90;9.20;97505.00;;;;5065527;28;20211;-69
2021/10/20 00:40:08;;;;;;;8.57;5.93;;;9.50;99.90;9.20;97502.00;;;;5065401;28;20204;-69
2021/10/20 00:42:57;;;;;;;7.43;5.87;;;9.50;99.90;9.20;97505.00;;;;5063977;28;20211;-70
2021/10/20 00:45:46;;;;;;;6.00;5.37;;;9.40;99.90;9.10;97495.00;;;;5066702;28;20237;-70
2021/10/20 00:48:35;;;;;;;6.97;5.77;;;9.50;99.90;8.90;97490.00;;;;5064557;28;20283;-69
2021/10/20 00:51:26;;;;;;;6.57;5.87;;;9.40;99.90;8.90;97492.00;;;;5064825;28;20593;-69
2021/10/20 00:54:15;;;;;;;6.90;6.20;;;9.30;99.90;9.00;97492.00;;;;5063509;28;20204;-69
2021/10/20 00:57:05;;;;;;;10.20;6.40;;;9.30;99.90;8.90;97481.00;;;;5065426;28;20199;-69
2021/10/20 00:59:56;;;;;;;7.90;5.90;;;9.20;99.90;9.10;97489.00;;;;5065222;28;20231;-69
2021/10/20 01:02:46;;;;;;;8.77;6.43;;;9.20;99.90;9.20;97488.00;;;;5063298;28;20216;-69
2021/10/20 01:05:35;;;;;;;7.50;6.67;;;9.30;99.90;9.10;97485.00;;;;5065359;28;20233;-69
2021/10/20 01:08:25;;;;;;;7.63;6.17;;;9.30;99.90;9.10;97489.00;;;;5064570;28;20712;-69
2021/10/20 01:11:15;;;;;;;13.57;6.53;;;9.10;99.90;9.20;97484.00;;;;5064655;28;20223;-69
2021/10/20 01:14:04;;;;;;;7.63;5.67;;;9.30;99.90;9.20;97487.00;;;;5065651;28;20218;-69
2021/10/20 01:16:53;;;;;;;7.30;6.23;;;9.30;99.90;9.20;97478.00;;;;5063652;28;20222;-69
2021/10/20 01:19:43;;;;;;;10.90;6.53;;;9.30;99.90;9.20;97470.00;;;;5069578;28;20233;-69
2021/10/20 01:22:35;;;;;;;6.20;5.60;;;9.30;99.90;9.30;97473.00;;;;5063452;28;20230;-69
2021/10/20 01:25:24;;;;;;;7.47;6.33;;;9.40;99.90;9.30;97471.00;;;;5084859;28;20587;-69
2021/10/20 01:28:13;;;;;;;8.27;6.70;;;9.40;99.90;9.20;97469.00;;;;5065393;28;20196;-69
2021/10/20 01:31:02;;;;;;;6.90;6.20;;;9.40;99.90;9.10;97461.00;;;;5063419;28;20220;-69
2021/10/20 01:33:51;;;;;;;6.53;5.67;;;9.40;99.90;9.00;97463.00;;;;5063753;28;20206;-70
2021/10/20 01:36:40;;;;;;;10.17;6.27;;;9.30;99.90;8.70;97465.00;;;;5064256;28;20693;-69
2021/10/20 01:39:31;;;;;;;6.57;5.50;;;9.20;99.90;8.70;97465.00;;;;5085216;28;20609;-69
2021/10/20 01:42:20;;;;;;;6.77;6.10;;;9.20;99.90;8.50;97468.00;;;;5063972;28;20236;-69
2021/10/20 01:45:11;;;;;;;7.00;5.87;;;9.00;99.90;8.60;97465.00;;;;5063895;28;20275;-69
2021/10/20 01:48:00;;;;;;;9.63;6.80;;;9.00;99.90;8.80;97453.00;;;;5085848;28;20731;-69
2021/10/20 01:50:49;;;;;;;11.03;7.20;;;8.90;99.90;8.70;97453.00;;;;5095074;28;20214;-69
2021/10/20 01:53:38;;;;;;;6.57;5.83;;;8.90;99.90;8.60;97451.00;;;;5087655;28;20203;-69
2021/10/20 01:56:28;;;;;;;10.23;8.33;;;8.90;99.90;8.60;97439.00;;;;5102408;28;20588;-69
2021/10/20 01:59:18;;;;;;;6.03;5.17;;;8.90;99.90;8.60;97436.00;;;;5107894;28;20704;-69
2021/10/20 02:02:17;;;;;;;7.07;5.93;;;8.80;99.90;8.60;97432.00;;;;5101128;28;20231;-69
2021/10/20 02:05:07;;;;;;;7.17;6.43;;;8.80;99.90;8.60;97424.00;;;;5067517;28;20207;-69
2021/10/20 02:07:56;;;;;;;8.63;6.30;;;8.90;99.90;8.60;97431.00;;;;5067111;28;20207;-69
2021/10/20 02:10:45;;;;;;;6.87;6.13;;;8.80;99.90;8.20;97425.00;;;;5068643;28;20227;-69
2021/10/20 02:13:35;;;;;;;5.97;5.47;;;8.80;99.90;8.40;97419.00;;;;5069129;28;20196;-70
2021/10/20 02:16:24;;;;;;;7.47;6.57;;;8.70;99.90;8.50;97413.00;;;;5067781;28;20580;-70
2021/10/20 02:19:12;;;;;;;6.47;5.80;;;8.70;99.90;8.50;97410.00;;;;5068051;28;20238;-70
2021/10/20 02:22:03;;;;;;;7.10;6.20;;;8.70;99.90;8.20;97404.00;;;;5068010;28;20243;-69
2021/10/20 02:24:52;;;;;;;8.23;6.47;;;8.70;99.90;8.10;97394.00;;;;5075732;28;20207;-69
2021/10/20 02:27:41;;;;;;;7.03;6.00;;;8.60;99.90;8.10;97393.00;;;;5073559;28;20212;-69
2021/10/20 02:30:31;;;;;;;8.60;5.87;;;8.50;99.90;8.10;97390.00;;;;5076591;28;20196;-69
2021/10/20 02:33:20;;;;;;;8.07;6.90;;;8.50;99.90;7.90;97392.00;;;;5065585;28;20211;-69
2021/10/20 02:36:09;;;;;;;9.53;6.70;;;8.40;99.90;7.90;97388.00;;;;5067022;28;20200;-69
2021/10/20 02:38:58;;;;;;;7.03;6.33;;;8.40;99.90;7.90;97371.00;;;;5066363;28;20192;-69
2021/10/20 02:41:47;;;;;;;7.23;6.53;;;8.30;99.90;8.10;97383.00;;;;5065703;28;20243;-69
2021/10/20 02:44:36;;;;;;;7.00;6.30;;;8.30;99.90;8.20;97377.00;;;;5066405;28;20234;-69
2021/10/20 02:47:26;;;;;;;8.73;5.97;;;8.40;99.90;8.30;97375.00;;;;5065814;28;20203;-69
2021/10/20 02:50:16;;;;;;;7.33;6.63;;;8.40;99.90;8.30;97375.00;;;;5066735;28;20203;-69
2021/10/20 02:53:04;;;;;;;6.63;5.60;;;8.50;99.90;8.00;97368.00;;;;5064873;28;20211;-69
2021/10/20 02:55:53;;;;;;;7.83;6.27;;;8.50;99.90;7.70;97362.00;;;;5066830;28;20573;-69
2021/10/20 02:58:42;;;;;;;10.23;6.80;;;8.30;99.90;7.60;97368.00;;;;5067199;28;20200;-69
2021/10/20 03:01:31;;;;;;;6.27;5.37;;;8.20;99.90;7.60;97360.00;;;;5068000;28;20242;-69
2021/10/20 03:04:21;;;;;;;8.27;6.77;;;8.10;99.90;7.40;97354.00;;;;5066409;28;20585;-68
2021/10/20 03:07:10;;;;;;;7.83;6.73;;;8.10;99.90;7.50;97370.00;;;;5065523;28;20223;-69
2021/10/20 03:09:59;;;;;;;7.47;6.23;;;7.90;99.90;7.70;97371.00;;;;5066579;28;20207;-69
2021/10/20 03:12:48;;;;;;;8.27;6.33;;;7.90;99.90;7.70;97367.00;;;;5066177;28;20224;-69
2021/10/20 03:15:37;;;;;;;7.97;6.00;;;7.90;99.90;7.50;97369.00;;;;5068168;28;20200;-69
2021/10/20 03:18:26;;;;;;;6.50;5.83;;;7.90;99.90;7.50;97367.00;;;;5066602;28;20299;-69
2021/10/20 03:21:16;;;;;;;8.27;5.73;;;7.90;99.90;7.60;97367.00;;;;5066885;28;20224;-69
2021/10/20 03:24:07;;;;;;;7.97;6.17;;;7.90;99.90;7.60;97367.00;;;;5070540;28;20204;-69
2021/10/20 03:26:56;;;;;;;6.10;5.20;;;7.90;99.90;7.70;97361.00;;;;5067236;28;20208;-69
2021/10/20 03:29:44;;;;;;;9.77;6.27;;;7.90;99.90;7.50;97361.00;;;;5066203;28;20282;-69
2021/10/20 03:32:33;;;;;;;6.73;5.20;;;7.90;99.90;7.20;97345.00;;;;5065411;28;20219;-69
2021/10/20 03:35:22;;;;;;;6.10;5.50;;;7.90;99.90;7.30;97345.00;;;;5065776;28;20208;-69
2021/10/20 03:38:12;;;;;;;6.03;5.43;;;7.80;99.90;7.30;97346.00;;;;5062968;28;20208;-69
2021/10/20 03:41:01;;;;;;;8.47;6.43;;;7.80;99.90;7.30;97341.00;;;;5095871;28;20599;-69
2021/10/20 03:43:57;;;;;;;9.20;5.60;;;7.80;99.90;6.90;97346.00;;;;5084591;28;20577;-68
2021/10/20 03:46:46;;;;;;;7.77;5.90;;;7.60;99.90;6.80;97331.00;;;;5066321;28;20204;-69
2021/10/20 03:49:34;;;;;;;5.30;4.80;;;7.60;99.90;7.00;97330.00;;;;5078706;28;20198;-68
2021/10/20 03:52:23;;;;;;;7.30;5.67;;;7.50;99.90;7.00;97325.00;;;;5065165;28;20601;-68
2021/10/20 03:55:13;;;;;;;7.23;6.33;;;7.60;99.90;7.20;97324.00;;;;5080367;28;20578;-68
2021/10/20 03:58:04;;;;;;;7.67;6.33;;;7.60;99.90;7.30;97326.00;;;;5066075;28;20219;-69
2021/10/20 04:00:54;;;;;;;5.77;5.27;;;7.60;99.90;7.40;97334.00;;;;5065771;28;20220;-69
2021/10/20 04:03:43;;;;;;;6.10;5.50;;;7.60;99.90;7.30;97329.00;;;;5065659;28;20200;-69
2021/10/20 04:06:32;;;;;;;8.33;6.27;;;7.70;99.90;7.50;97334.00;;;;5066547;28;20200;-69
2021/10/20 04:09:21;;;;;;;6.37;5.30;;;7.70;99.90;7.40;97321.00;;;;5065909;28;20208;-69
2021/10/20 04:12:11;;;;;;;10.30;5.63;;;7.70;99.90;7.10;97317.00;;;;5064868;28;20226;-68
2021/10/20 04:15:00;;;;;;;8.53;6.23;;;7.60;99.90;7.30;97315.00;;;;5065657;28;20200;-69
2021/10/20 04:17:49;;;;;;;10.40;6.17;;;7.60;99.90;7.30;97311.00;;;;5063615;28;20203;-69
2021/10/20 04:20:38;;;;;;;7.97;6.53;;;7.60;99.90;7.60;97320.00;;;;5063936;28;20232;-69
2021/10/20 04:23:27;;;;;;;7.33;6.40;;;7.70;99.90;7.40;97310.00;;;;5064826;28;20603;-69
2021/10/20 04:26:16;;;;;;;6.37;5.07;;;7.70;99.90;7.10;97304.00;;;;5064650;28;20242;-69
2021/10/20 04:29:06;;;;;;;7.43;5.70;;;7.70;99.90;6.90;97305.00;;;;5068842;28;20534;-69
2021/10/20 04:31:55;;;;;;;6.83;5.57;;;7.60;99.90;6.70;97303.00;;;;5083962;28;20223;-70
2021/10/20 04:34:44;;;;;;;5.03;4.53;;;7.40;99.90;6.80;97304.00;;;;5083895;28;20329;-69
2021/10/20 04:37:33;;;;;;;5.73;5.17;;;7.30;99.90;6.80;97303.00;;;;5085109;28;20255;-70
2021/10/20 04:40:22;;;;;;;8.47;6.13;;;7.30;99.90;6.90;97289.00;;;;5083243;28;20223;-70
2021/10/20 04:43:11;;;;;;;7.40;5.37;;;7.30;99.90;6.70;97286.00;;;;5083956;28;20207;-69
2021/10/20 04:46:01;;;;;;;7.53;6.37;;;7.30;99.90;6.90;97290.00;;;;5074167;28;20196;-69
2021/10/20 04:48:51;;;;;;;8.20;6.90;;;7.30;99.90;6.90;97280.00;;;;5073686;28;20225;-70
2021/10/20 04:51:40;;;;;;;9.40;6.03;;;7.30;99.90;6.80;97277.00;;;;5069670;28;20686;-69
2021/10/20 04:54:29;;;;;;;6.90;5.80;;;7.30;99.90;6.90;97276.00;;;;5084317;28;20199;-69
2021/10/20 04:57:17;;;;;;;5.80;4.50;;;7.30;99.90;6.60;97272.00;;;;5085234;28;20477;-70
2021/10/20 05:00:09;;;;;;;5.77;4.67;;;7.30;99.90;6.30;97266.00;;;;5084244;28;20202;-68
2021/10/20 05:02:59;;;;;;;6.43;5.40;;;7.10;99.90;6.10;97263.00;;;;5080592;28;20223;-69
2021/10/20 05:05:48;;;;;;;7.30;5.17;;;7.00;99.90;6.20;97261.00;;;;5078439;28;20768;-69
2021/10/20 05:08:36;;;;;;;8.70;5.90;;;6.90;99.90;6.20;97258.00;;;;5083780;28;20588;-68
2021/10/20 05:11:25;;;;;;;5.93;5.33;;;6.90;99.90;6.40;97265.00;;;;5083329;28;20227;-68
2021/10/20 05:14:14;;;;;;;6.07;5.03;;;6.90;99.90;6.30;97256.00;;;;5083990;28;20203;-69
2021/10/20 05:17:03;;;;;;;7.00;5.60;;;6.90;99.90;6.60;97263.00;;;;5084644;28;20585;-69
2021/10/20 05:19:54;;;;;;;6.93;5.57;;;6.90;99.90;6.60;97259.00;;;;5104469;28;20214;-68
2021/10/20 05:22:44;;;;;;;11.17;6.03;;;7.00;99.90;6.60;97264.00;;;;5103986;28;20214;-68
2021/10/20 05:25:32;;;;;;;8.60;6.90;;;7.00;99.90;6.40;97253.00;;;;5100684;28;20210;-67
2021/10/20 05:28:21;;;;;;;17.50;13.57;;;7.00;99.90;6.30;97258.00;;;;5092320;28;20608;-67
2021/10/20 05:31:10;;;;;;;14.53;12.23;;;7.00;99.90;6.60;97260.00;;;;5095092;28;20696;-68
2021/10/20 05:33:59;;;;;;;10.67;8.63;;;6.90;99.90;6.70;97262.00;;;;5107255;28;20210;-68
2021/10/20 05:36:49;;;;;;;9.03;8.10;;;7.00;99.90;6.80;97267.00;;;;5107096;28;20210;-70
2021/10/20 05:39:40;;;;;;;6.93;5.17;;;7.00;99.90;6.40;97264.00;;;;5087474;28;20206;-69
2021/10/20 05:42:29;;;;;;;3.10;2.43;;;7.20;99.90;6.40;97261.00;;;;5087641;28;20693;-69
2021/10/20 05:45:19;;;;;;;8.00;5.50;;;7.00;99.90;6.30;97237.00;;;;5088015;28;20681;-68
2021/10/20 05:48:07;;;;;;;6.93;5.93;;;6.90;99.90;6.40;97241.00;;;;5088185;28;20226;-69
2021/10/20 05:50:56;;;;;;;6.70;5.13;;;6.90;99.90;7.00;97248.00;;;;5087690;28;20335;-69
2021/10/20 05:53:47;;;;;;;7.43;6.47;;;7.00;99.90;6.90;97239.00;;;;5087516;28;20240;-69
2021/10/20 05:56:35;;;;;;;6.77;4.97;;;7.20;99.90;6.70;97236.00;;;;5086853;28;20666;-67
2021/10/20 05:59:24;;;;;;;7.93;5.13;;;7.20;99.90;6.70;97240.00;;;;5089531;28;20203;-68
2021/10/20 06:02:14;;;;;;;4.23;3.70;;;7.10;99.90;6.70;97248.00;;;;5107496;28;20324;-68
2021/10/20 06:05:04;;;;;;;10.83;5.30;;;7.20;99.90;7.10;97238.00;;;;5107779;28;20279;-69
2021/10/20 06:07:53;;;;;;;8.87;5.63;;;7.30;99.90;7.10;97216.00;;;;5101758;28;20215;-68
2021/10/20 06:10:43;;;;;;;6.77;4.77;;;7.40;99.90;7.00;97232.00;;;;5087409;28;20206;-69
2021/10/20 06:13:32;;;;;;;5.97;5.37;;;7.40;99.90;7.00;97224.00;;;;5087227;28;20367;-69
2021/10/20 06:16:21;;;;;;;4.93;4.47;;;7.50;99.90;6.90;97228.00;;;;5086135;28;20211;-69
2021/10/20 06:19:10;;;;;;;5.17;4.77;;;7.40;99.90;6.90;97237.00;;;;5085363;28;20195;-68
2021/10/20 06:21:59;;;;;;;5.40;4.90;;;7.40;99.90;7.20;97239.00;;;;5099851;28;20206;-69
2021/10/20 06:24:48;;;;;;;7.07;5.47;;;7.50;99.90;7.00;97230.00;;;;5103482;28;21424;-69
2021/10/20 06:27:38;;;;;;;4.57;4.17;;;7.50;99.90;7.10;97236.00;;;;5098116;28;20202;-68
2021/10/20 06:30:27;;;;;;;7.87;4.50;;;7.50;99.90;7.40;97232.00;;;;5104858;28;20677;-69
2021/10/20 06:33:16;;;;;;;10.10;4.10;;;7.60;99.90;7.50;97233.00;;;;5097211;28;20601;-69
2021/10/20 06:36:05;;;;;;;4.97;4.23;;;7.70;99.90;7.60;97234.00;;;;5094576;28;20203;-69
2021/10/20 06:38:54;;;;;;;5.30;4.17;;;7.80;99.90;7.50;97228.00;;;;5104295;28;20207;-69
2021/10/20 06:41:42;;;;;;;8.67;4.43;;;7.80;99.90;7.60;97227.00;;;;5105787;28;20237;-69
2021/10/20 06:44:33;;;;;;;5.93;4.03;;;7.90;99.90;7.60;97226.00;;;;5107602;28;20194;-69
2021/10/20 06:47:22;;;;;;;5.43;4.77;;;7.90;99.90;7.70;97224.00;;;;5095549;28;20245;-68
2021/10/20 06:50:11;;;;;;;4.70;4.10;;;8.00;99.90;7.80;97223.00;;;;5106587;28;20693;-69
2021/10/20 06:53:00;;;;;;;4.63;3.90;;;8.10;99.90;7.70;97215.00;;;;5095892;28;20270;-69
2021/10/20 06:55:48;;;;;;;9.20;4.03;;;8.10;99.90;7.80;97211.00;;;;5107170;28;20225;-69
2021/10/20 06:58:37;;;;;;;4.10;3.53;;;8.20;99.90;7.90;97220.00;;;;5094978;28;20207;-69
2021/10/20 07:01:28;;;;;;;4.03;3.67;;;8.20;99.90;8.10;97214.00;;;;5101509;28;20219;-69
2021/10/20 07:04:16;;;;;;;7.30;5.30;;;8.30;99.90;8.30;97211.00;;;;5099235;28;20503;-69
2021/10/20 07:07:10;;;;;;;4.90;3.80;;;8.40;99.90;8.60;97222.00;;;;5097631;28;20202;-70
2021/10/20 07:09:59;;;;;;;4.50;4.03;;;8.60;99.90;8.70;97212.00;;;;5106581;28;20206;-69
2021/10/20 07:12:49;;;;;;;5.23;4.63;;;8.70;99.90;8.70;97215.00;;;;5091707;28;20222;-69
2021/10/20 07:15:38;;;;;;;6.07;4.03;;;8.90;99.90;8.90;97215.00;;;;5103718;28;20198;-69
2021/10/20 07:18:29;;;;;;;6.90;4.63;;;9.00;99.90;9.10;97218.00;;;;5097492;28;20195;-69
2021/10/20 07:21:18;;;;;;;8.20;4.20;;;9.20;99.90;9.30;97206.00;;;;5098450;28;20348;-69
2021/10/20 07:24:07;;;;;;;7.70;4.07;;;9.30;99.90;9.50;97207.00;;;;5103671;28;20580;-70
2021/10/20 07:26:56;;;;;;;5.60;4.37;;;9.40;99.90;9.60;97205.00;;;;5090739;28;20199;-68
2021/10/20 07:29:46;;;;;;;10.03;5.60;;;9.60;99.90;9.70;97192.00;;;;5083148;28;20218;-69
2021/10/20 07:32:37;;;;;;;8.10;4.70;;;9.70;99.90;10.00;97195.00;;;;5085859;28;20223;-70
2021/10/20 07:35:27;;;;;;;5.70;4.50;;;9.80;99.90;10.10;97194.00;;;;5088468;28;20708;-70
2021/10/20 07:38:16;;;;;;;14.40;8.23;;;10.00;99.90;10.20;97198.00;;;;5092623;28;20446;-69
2021/10/20 07:41:05;;;;;;;11.97;7.30;;;10.10;99.90;10.40;97197.00;;;;5086337;28;20734;-68
2021/10/20 07:43:55;;;;;;;6.37;5.63;;;10.30;99.90;10.70;97183.00;;;;5086316;28;20210;-68
2021/10/20 07:46:43;;;;;;;7.70;6.07;;;10.40;99.90;11.00;97191.00;;;;5066287;28;20200;-69
2021/10/20 07:49:32;;;;;;;11.47;5.63;;;10.60;99.90;11.30;97186.00;;;;5085326;28;20577;-68
2021/10/20 07:52:25;;;;;;;6.73;5.80;;;10.90;99.90;11.40;97195.00;;;;5085675;28;20223;-69
2021/10/20 07:55:15;;;;;;;8.57;4.63;;;11.10;99.90;11.80;97193.00;;;;5097532;28;20210;-68
2021/10/20 07:58:04;;;;;;;5.43;4.20;;;11.30;99.90;12.10;97189.00;;;;5086533;28;20191;-69
2021/10/20 08:00:53;;;;;;;7.67;5.10;;;11.60;99.90;12.20;97196.00;;;;5086206;28;20223;-69
2021/10/20 08:03:41;;;;;;;10.03;4.80;;;11.80;99.90;12.20;97193.00;;;;5086372;28;20203;-69
2021/10/20 08:06:30;;;;;;;7.77;5.63;;;12.00;99.90;12.40;97182.00;;;;5084862;28;20203;-69
2021/10/20 08:09:20;;;;;;;7.33;4.27;;;12.10;99.90;12.50;97176.00;;;;5084936;28;20659;-68
2021/10/20 08:12:10;;;;;;;10.93;6.27;;;12.30;99.90;12.60;97175.00;;;;5085799;28;20231;-68
2021/10/20 08:15:00;;;;;;;6.93;4.20;;;12.40;99.90;13.00;97182.00;;;;5084170;28;20199;-69
2021/10/20 08:17:49;;;;;;;5.07;3.90;;;12.60;99.90;13.20;97180.00;;;;5084644;28;20207;-69
2021/10/20 08:20:39;;;;;;;5.23;4.67;;;12.90;99.90;13.40;97164.00;;;;5090288;28;20200;-68
2021/10/20 08:23:28;;;;;;;4.67;4.13;;;13.00;99.90;13.40;97169.00;;;;5099570;28;20643;-68
2021/10/20 08:26:19;;;;;;;5.13;4.60;;;13.20;99.90;13.60;97165.00;;;;5089031;27;20226;-68
2021/10/20 08:29:08;;;;;;;6.80;4.57;;;13.30;99.90;13.80;97159.00;;;;5097692;28;20229;-68
2021/10/20 08:31:58;;;;;;;5.20;4.53;;;13.50;99.90;14.00;97160.00;;;;5096345;28;20652;-68
2021/10/20 08:34:48;;;;;;;6.23;4.00;;;13.70;99.90;14.20;97166.00;;;;5092703;28;20205;-68
2021/10/20 08:37:37;;;;;;;5.73;4.27;;;13.90;99.90;14.60;97159.00;;;;5095088;28;20217;-68
2021/10/20 08:40:29;;;;;;;7.17;4.30;;;14.10;99.90;14.70;97160.00;;;;5086715;28;20202;-69
2021/10/20 08:43:21;;;;;;;5.03;3.97;;;14.30;99.90;15.00;97162.00;;;;5096435;28;20198;-68
2021/10/20 08:46:09;;;;;;;4.53;3.37;;;14.50;99.90;15.40;97163.00;;;;5097150;28;20568;-69
2021/10/20 08:49:00;;;;;;;4.43;3.57;;;14.80;99.90;15.50;97154.00;;;;5098731;28;20199;-68
2021/10/20 08:51:49;;;;;;;7.40;3.83;;;15.00;99.90;15.80;97147.00;;;;5092329;28;20227;-69
2021/10/20 08:54:38;;;;;;;8.90;3.63;;;15.20;99.90;16.00;97142.00;;;;5089518;28;20560;-69
2021/10/20 08:57:27;;;;;;;6.00;3.73;;;15.40;99.90;16.10;97143.00;;;;5097736;28;20723;-69
2021/10/20 09:00:19;;;;;;;11.70;3.73;;;15.60;99.90;16.40;97140.00;;;;5093419;28;20210;-70
2021/10/20 09:03:08;;;;;;;5.17;3.73;;;15.70;99.90;16.50;97132.00;;;;5072707;28;20211;-69
2021/10/20 09:05:58;;;;;;;6.77;4.07;;;15.90;99.90;16.60;97139.00;;;;5084917;28;20206;-67
2021/10/20 09:08:48;;;;;;;5.27;3.07;;;16.00;99.90;16.70;97139.00;;;;5068191;28;20207;-69
2021/10/20 09:11:39;;;;;;;6.87;3.37;;;16.20;99.90;17.00;97131.00;;;;5068014;28;20223;-68
2021/10/20 09:14:28;;;;;;;5.30;3.60;;;16.30;99.90;17.30;97127.00;;;;5066462;28;20211;-68
2021/10/20 09:17:18;;;;;;;4.57;3.47;;;16.50;99.90;17.40;97122.00;;;;5070552;28;20674;-70
2021/10/20 09:20:24;;;;;;;3.43;2.80;;;16.70;99.90;17.50;97124.00;;;;5098076;28;20296;-69
2021/10/20 09:23:14;;;;;;;6.30;3.67;;;16.80;99.90;17.60;97118.00;;;;5072309;28;20199;-69
2021/10/20 09:26:10;;;;;;;4.43;3.50;;;17.00;99.90;17.70;97118.00;;;;5083195;28;20222;-69
2021/10/20 09:29:00;;;;;;;4.23;3.83;;;17.10;99.90;17.90;97109.00;;;;5067851;28;20199;-69
2021/10/20 09:31:52;;;;;;;3.47;3.17;;;17.30;99.90;18.20;97104.00;;;;5077166;28;20701;-67
2021/10/20 09:34:43;;;;;;;5.00;3.70;;;17.40;99.90;18.30;97106.00;;;;5069524;28;20208;-69
2021/10/20 09:37:32;;;;;;;5.60;3.80;;;17.60;99.90;18.30;97096.00;;;;5067205;28;20195;-67
2021/10/20 09:40:21;;;;;;;4.97;3.13;;;17.70;99.90;18.60;97090.00;;;;5073528;28;20216;-68
2021/10/20 09:43:13;;;;;;;4.87;3.60;;;17.80;99.90;18.70;97089.00;;;;5089070;28;20204;-69
2021/10/20 09:46:03;;;;;;;3.63;3.33;;;18.00;99.90;18.90;97080.00;;;;5102149;28;20209;-70
2021/10/20 09:48:52;;;;;;;6.03;2.93;;;18.10;99.90;19.00;97070.00;;;;5093299;28;20215;-70
2021/10/20 09:51:42;;;;;;;3.40;3.07;;;18.20;99.90;19.40;97072.00;;;;5098844;28;20222;-69
2021/10/20 09:54:36;;;;;;;8.43;3.87;;;18.40;99.90;19.60;97066.00;;;;5104378;28;20607;-69
2021/10/20 09:57:31;;;;;;;4.10;2.90;;;18.60;99.90;19.80;97062.00;;;;5087583;28;20190;-69
2021/10/20 10:00:20;;;;;;;5.90;3.27;;;18.80;99.90;20.10;97066.00;;;;5092719;28;20199;-70
2021/10/20 10:03:10;;;;;;;4.47;3.50;;;19.00;99.90;20.40;97063.00;;;;5088212;28;20203;-69
2021/10/20 10:06:00;;;;;;;5.23;2.97;;;19.20;99.90;20.40;97067.00;;;;5097528;28;20206;-70
2021/10/20 10:08:50;;;;;;;4.63;2.83;;;19.40;99.90;20.60;97056.00;;;;5090271;28;20217;-69
2021/10/20 10:11:45;;;;;;;4.17;2.67;;;19.60;99.90;20.70;97049.00;;;;5104207;28;20230;-70
2021/10/20 10:14:41;;;;;;;5.03;2.77;;;19.80;99.90;21.00;97038.00;;;;5098667;28;20229;-70
2021/10/20 10:17:31;;;;;;;2.67;2.43;;;20.00;99.90;21.30;97050.00;;;;5076673;28;20229;-70
2021/10/20 10:20:21;;;;;;;4.07;2.63;;;20.30;99.90;21.70;97039.00;;;;5070039;28;20566;-70
2021/10/20 10:23:24;;;;;;;4.70;3.00;;;20.70;98.10;22.10;97043.00;;;;5080576;28;20204;-71
2021/10/20 10:26:14;;;;;;;3.63;2.63;;;21.10;96.80;22.60;97042.00;;;;5078633;28;20198;-71
2021/10/20 10:29:10;;;;;;;4.47;2.43;;;21.50;95.00;23.10;97036.00;;;;5073048;28;20207;-71
2021/10/20 10:32:01;;;;;;;6.47;3.70;;;21.90;95.10;23.50;97024.00;;;;5084258;28;20732;-71
2021/10/20 10:34:51;;;;;;;4.53;2.73;;;22.30;94.00;23.80;97017.00;;;;5073740;28;20234;-71
2021/10/20 10:37:40;;;;;;;2.90;2.60;;;22.70;92.40;24.00;97010.00;;;;5067438;28;20206;-70
2021/10/20 10:40:32;;;;;;;5.57;3.13;;;23.00;91.40;23.60;97008.00;;;;5078251;28;20566;-70
2021/10/20 10:43:22;;;;;;;2.57;2.13;;;23.10;87.30;24.00;97003.00;;;;5078391;28;20213;-71
2021/10/20 10:46:14;;;;;;;4.40;2.60;;;23.50;85.90;24.50;97001.00;;;;5077133;28;20216;-71
2021/10/20 10:49:04;;;;;;;6.40;3.20;;;23.70;84.40;24.80;97001.00;;;;5075185;28;20596;-71
2021/10/20 10:52:19;;;;;;;10.60;3.90;;;24.00;83.10;24.50;96989.00;;;;5069975;28;20659;-71
2021/10/20 10:55:18;;;;;;;11.20;3.73;;;24.10;78.60;25.30;96985.00;;;;5079774;28;20217;-73
2021/10/20 10:58:18;;;;;;;7.87;3.90;;;24.30;79.70;25.80;96989.00;;;;5085948;28;20209;-72
2021/10/20 11:01:08;;;;;;;7.40;3.47;;;24.70;79.10;25.70;96985.00;;;;5096708;28;20224;-71
2021/10/20 11:04:19;;;;;;;9.75;3.88;;;24.90;75.30;25.90;96967.00;;;;5083403;28;20231;-71
2021/10/20 11:07:10;;;;;;;12.80;4.35;;;25.20;72.90;26.20;96965.00;;;;5076712;28;20761;-70
2021/10/20 11:10:00;;;;;;;13.52;5.57;;;25.50;71.30;26.50;96966.00;;;;5072160;28;20391;-70
2021/10/20 11:12:51;;;;;;;11.20;4.50;;;25.70;68.60;26.10;96959.00;;;;5079961;28;20219;-71
2021/10/20 11:15:41;;;;;;;9.70;5.40;;;25.60;67.20;26.30;96956.00;;;;5082624;28;20210;-70
2021/10/20 11:18:31;;;;;;;10.00;4.50;;;25.80;66.10;26.00;96944.00;;;;5081271;28;20269;-71
2021/10/20 11:21:21;;;;;;;11.90;4.65;;;26.00;64.20;26.40;96951.00;;;;5087859;28;20229;-69
2021/10/20 11:24:10;;;;;;;7.35;4.45;;;26.10;63.90;26.70;96949.00;;;;5077400;28;20223;-69
2021/10/20 11:27:02;;;;;;;8.30;4.03;;;26.20;64.40;27.10;96940.00;;;;5080832;28;20216;-69
2021/10/20 11:29:53;;;;;;;;;;;26.30;65.30;27.80;96936.00;;;;5083309;28;20047;-70
2021/10/20 11:32:43;;;;;;;;;;;26.60;66.60;28.00;96919.00;;;;5074619;28;20423;-71
2021/10/20 11:35:33;;;;;;;;;;;27.10;64.80;27.90;96920.00;;;;5070146;28;19920;-70
2021/10/20 11:38:22;;;;;;;;;;;27.50;62.90;26.60;96919.00;;;;5080727;28;19920;-71
2021/10/20 11:41:18;;;;;;;;;;;27.60;60.00;27.60;96914.00;;;;5076445;28;19921;-71
2021/10/20 11:44:06;;;;;;;;;;;27.50;61.40;26.80;96902.00;;;;5069319;28;19920;-72
2021/10/20 11:46:56;;;;;;;;;;;27.20;58.90;27.20;96893.00;;;;5079666;28;20137;-72
2021/10/20 11:49:45;;;;;;;;;;;27.20;60.80;27.70;96886.00;;;;5079511;28;19924;-73
2021/10/20 11:52:35;;;;;;;;;;;27.30;61.10;27.40;96877.00;;;;5068405;28;19929;-72
2021/10/20 11:55:24;;;;;;;;;;;27.40;59.50;27.80;96870.00;;;;5084483;28;19935;-71
2021/10/20 11:58:20;;;;;;;;;;;27.60;59.20;28.20;96869.00;;;;5092384;28;20395;-71
2021/10/20 12:01:09;;;;;;;;;;;27.70;59.90;27.20;96862.00;;;;5086715;28;20322;-72
2021/10/20 12:03:57;;;;;;;;;;;27.90;58.50;28.20;96858.00;;;;5080983;28;19920;-72
2021/10/20 12:06:47;;;;;;;;;;;28.00;59.00;28.70;96848.00;;;;5085194;28;19920;-71
2021/10/20 12:09:39;;;;;;;;;;;28.20;58.70;28.40;96862.00;;;;5082649;28;19920;-72
2021/10/20 12:12:28;;;;;;;;;;;28.50;58.10;28.50;96850.00;;;;5083219;28;20375;-72
2021/10/20 12:15:19;;;;;;;;;;;28.50;57.00;28.90;96844.00;;;;5079441;28;19920;-72
2021/10/20 12:18:09;;;;;;;;;;;28.60;57.60;29.40;96840.00;;;;5081196;28;20376;-72
2021/10/20 12:20:59;;;;;;;;;;;28.70;57.60;29.70;96834.00;;;;5084147;28;20299;-72
2021/10/20 12:23:48;;;;;;;;;;;28.90;57.50;29.90;96833.00;;;;5093769;28;20424;-72
2021/10/20 12:26:39;;;;;;;10.15;4.68;;;29.50;55.60;29.60;96820.00;;;;5088251;28;20186;-72
2021/10/20 12:29:28;;;;;;;7.60;4.55;;;29.50;55.80;29.80;96815.00;;;;5081709;28;20397;-72
2021/10/20 12:32:20;;;;;;;6.65;4.85;;;29.50;54.00;30.10;96815.00;;;;5085032;28;20618;-73
2021/10/20 12:35:13;;;;;;;6.85;3.75;;;29.40;55.00;30.50;96799.00;;;;5082291;28;20480;-73
2021/10/20 12:38:05;;;;;;;7.63;4.70;;;29.60;55.40;30.80;96810.00;;;;5082369;28;20195;-72
2021/10/20 12:40:53;;;;;;;6.68;4.65;;;29.80;55.20;30.10;96797.00;;;;5079091;28;20219;-73
2021/10/20 12:43:46;;;;;;;6.72;4.57;;;29.90;54.40;30.50;96788.00;;;;5084860;28;20206;-73
2021/10/20 12:46:51;;;;;;;9.23;4.65;;;30.00;54.30;29.90;96787.00;;;;5081632;28;20207;-74
2021/10/20 12:49:39;;;;;;;4.22;3.67;;;30.10;53.80;30.40;96778.00;;;;5088844;28;20207;-72